createdAt,value
2023-01-17T01:59:22.487Z,93.07
2023-01-17T02:04:29.347Z,93.41
2023-01-17T02:09:32.755Z,92.97
2023-01-17T02:14:37.804Z,92.57
2023-01-17T02:20:17.775Z,92.29
2023-01-17T02:25:42.744Z,91.68
2023-01-17T02:30:50.966Z,91.10
2023-01-17T02:36:06.863Z,89.95
2023-01-17T02:41:17.408Z,89.62
2023-01-17T02:46:22.292Z,88.74
2023-01-17T02:51:53.169Z,88.02
2023-01-17T02:57:12.970Z,87.84
2023-01-17T03:02:29.221Z,87.87
2023-01-17T03:07:34.431Z,87.45
2023-01-17T03:12:39.482Z,87.65
2023-01-17T03:17:49.172Z,86.96
2023-01-17T03:22:52.607Z,87.28
2023-01-17T03:27:56.502Z,86.89
2023-01-17T03:33:01.239Z,87.61
2023-01-17T03:38:04.955Z,87.72
2023-01-17T03:43:08.674Z,87.98
2023-01-17T03:48:13.531Z,88.80
2023-01-17T03:53:16.886Z,88.70
2023-01-17T03:58:20.416Z,89.62
2023-01-17T04:03:25.369Z,89.73
2023-01-17T04:08:29.522Z,89.41
2023-01-17T04:13:33.214Z,89.66
2023-01-17T04:18:38.236Z,89.57
2023-01-17T04:23:41.618Z,89.80
2023-01-17T04:28:45.006Z,89.66
2023-01-17T04:33:49.778Z,90.25
2023-01-17T04:38:53.141Z,90.56
2023-01-17T04:43:56.586Z,90.77
2023-01-17T04:49:01.654Z,89.91
2023-01-17T04:54:05.092Z,89.51
2023-01-17T04:59:08.637Z,89.46
2023-01-17T05:04:13.457Z,89.86
2023-01-17T05:09:17.294Z,89.76
2023-01-17T05:14:20.653Z,89.39
2023-01-17T05:19:26.159Z,89.25
2023-01-17T05:24:29.570Z,89.47
2023-01-17T05:29:32.940Z,89.55
2023-01-17T05:34:37.745Z,89.61
2023-01-17T05:39:41.119Z,89.27
2023-01-17T05:44:44.449Z,89.61
2023-01-17T05:49:49.285Z,89.62
2023-01-17T05:54:52.879Z,89.80
2023-01-17T05:59:56.281Z,89.74
2023-01-17T06:05:03.373Z,90.07
2023-01-17T06:10:08.199Z,90.00
2023-01-17T06:15:13.048Z,89.81
2023-01-17T06:20:18.112Z,89.31
2023-01-17T06:25:21.443Z,88.82
2023-01-17T06:30:24.861Z,88.89
2023-01-17T06:35:30.197Z,88.72
2023-01-17T06:40:33.569Z,88.27
2023-01-17T06:45:37.530Z,88.56
2023-01-17T06:50:42.605Z,88.36
2023-01-17T06:55:46.055Z,88.01
2023-01-17T07:00:49.529Z,88.12
2023-01-17T07:05:54.637Z,88.43
2023-01-17T07:11:01.256Z,88.06
2023-01-17T07:16:06.033Z,88.50
2023-01-17T07:21:15.744Z,87.69
2023-01-17T07:26:19.587Z,88.15
2023-01-17T07:31:23.009Z,88.22
2023-01-17T07:36:27.813Z,87.70
2023-01-17T07:41:33.287Z,87.91
2023-01-17T07:46:41.372Z,87.60
2023-01-17T07:51:48.598Z,87.06
2023-01-17T07:56:51.988Z,86.92
2023-01-17T08:01:55.504Z,86.24
2023-01-17T08:07:00.669Z,85.61
2023-01-17T08:12:04.384Z,86.09
2023-01-17T08:17:08.020Z,86.50
2023-01-17T08:22:13.258Z,86.59
2023-01-17T08:27:16.736Z,86.55
2023-01-17T08:32:21.411Z,86.85
2023-01-17T08:37:26.290Z,86.67
2023-01-17T08:42:30.698Z,86.04
2023-01-17T08:47:34.646Z,85.64
2023-01-17T08:52:39.479Z,85.44
2023-01-17T08:57:42.943Z,85.37
2023-01-17T09:02:46.350Z,85.07
2023-01-17T09:07:51.413Z,85.11
2023-01-17T09:12:55.089Z,84.83
2023-01-17T09:17:59.127Z,84.57
2023-01-17T09:23:05.690Z,84.30
2023-01-17T09:28:09.045Z,84.03
2023-01-17T09:33:12.609Z,82.88
2023-01-17T09:38:18.039Z,79.89
2023-01-17T09:43:27.333Z,77.10
2023-01-17T09:48:38.589Z,77.33
2023-01-17T09:53:44.366Z,75.39
2023-01-17T09:58:55.704Z,74.73
2023-01-17T10:04:10.606Z,75.54
2023-01-17T10:09:46.877Z,75.77
2023-01-17T10:15:07.283Z,75.95
2023-01-17T10:20:26.826Z,75.05
2023-01-17T10:25:43.032Z,76.21
2023-01-17T10:30:50.890Z,75.69
2023-01-17T10:35:58.271Z,74.89
2023-01-17T10:41:09.268Z,74.95
2023-01-17T10:46:18.241Z,73.99
2023-01-17T10:51:34.767Z,73.18
2023-01-17T10:56:42.317Z,73.35
2023-01-17T11:01:46.507Z,72.80
2023-01-17T11:07:11.204Z,72.18
2023-01-17T11:12:22.338Z,71.72
2023-01-17T11:17:27.766Z,69.74
2023-01-17T11:22:31.400Z,70.13
2023-01-17T11:27:39.577Z,70.25
2023-01-17T11:32:53.193Z,67.56
2023-01-17T12:19:55.087Z,66.43
2023-01-17T12:25:14.956Z,66.69
2023-01-17T12:30:31.848Z,66.62
2023-01-17T12:35:42.803Z,66.80
2023-01-17T12:40:50.473Z,67.30
2023-01-17T12:45:55.753Z,68.40
2023-01-17T12:51:06.992Z,68.84
2023-01-17T12:56:17.482Z,69.52
2023-01-17T13:01:26.987Z,69.73
2023-01-17T13:06:43.442Z,70.57
2023-01-17T13:11:52.192Z,71.38
2023-01-17T13:16:59.162Z,71.12
2023-01-17T13:22:07.715Z,71.79
2023-01-17T13:27:40.436Z,71.77
2023-01-17T13:33:01.641Z,72.28
2023-01-17T13:38:32.031Z,72.88
2023-01-17T13:43:39.523Z,73.10
2023-01-17T13:48:42.975Z,72.92
2023-01-17T13:53:50.900Z,72.73
2023-01-17T13:59:03.472Z,72.86
2023-01-17T14:04:08.732Z,73.49
2023-01-17T14:09:23.185Z,73.83
2023-01-17T14:14:38.098Z,73.74
2023-01-17T14:19:42.454Z,73.96
2023-01-17T14:25:01.787Z,74.52
2023-01-17T14:30:18.770Z,74.87
2023-01-17T14:35:24.441Z,75.02
2023-01-17T14:40:34.096Z,75.36
2023-01-17T14:45:41.423Z,76.26
2023-01-17T14:50:46.289Z,76.77
2023-01-17T14:55:57.475Z,77.11
2023-01-17T15:01:03.654Z,77.36
2023-01-17T15:06:13.967Z,78.06
2023-01-17T15:11:24.137Z,78.54
2023-01-17T15:16:29.668Z,78.59
2023-01-17T15:21:37.215Z,78.72
2023-01-17T15:26:43.381Z,78.78
2023-01-17T15:31:49.630Z,78.36
2023-01-17T15:36:53.881Z,78.35
2023-01-17T15:42:00.162Z,77.95
2023-01-17T15:47:04.007Z,78.10
2023-01-17T15:52:17.217Z,78.19
2023-01-17T15:57:26.434Z,78.37
2023-01-17T16:02:38.858Z,77.94
2023-01-17T16:07:42.617Z,77.56
2023-01-17T16:12:48.426Z,77.32
2023-01-17T16:17:57.465Z,77.13
2023-01-17T16:23:01.909Z,76.69
2023-01-17T16:28:07.463Z,76.98
2023-01-17T16:33:12.774Z,77.53
2023-01-17T16:38:17.692Z,77.66
2023-01-17T16:43:22.559Z,77.40
2023-01-17T16:48:26.317Z,77.24
2023-01-17T16:53:30.188Z,77.45
2023-01-17T16:58:35.285Z,77.67
2023-01-17T17:03:38.862Z,78.34
2023-01-17T17:08:43.211Z,78.47
2023-01-17T17:13:49.823Z,78.59
2023-01-17T17:18:58.916Z,79.46
2023-01-17T17:24:03.400Z,79.71
2023-01-17T17:29:10.887Z,79.99
2023-01-17T17:34:16.332Z,81.20
2023-01-17T17:39:19.840Z,81.79
2023-01-17T17:44:25.139Z,81.95
2023-01-17T17:49:29.947Z,81.93
2023-01-17T17:54:33.738Z,82.14
2023-01-17T17:59:39.627Z,82.41
2023-01-17T18:04:43.473Z,82.66
2023-01-17T18:09:47.230Z,83.18
2023-01-17T18:14:52.075Z,83.46
2023-01-17T18:19:55.651Z,84.05
2023-01-17T18:24:59.483Z,84.04
2023-01-17T18:30:04.843Z,84.56
2023-01-17T18:35:09.913Z,84.94
2023-01-17T18:40:14.501Z,84.65
2023-01-17T18:45:19.776Z,84.70
2023-01-17T18:50:23.664Z,84.25
2023-01-17T18:55:27.229Z,84.41
2023-01-17T19:00:32.195Z,84.54
2023-01-17T19:05:36.935Z,84.72
2023-01-17T19:10:40.760Z,85.01
2023-01-17T19:15:46.191Z,85.24
2023-01-17T19:20:52.264Z,85.78
2023-01-17T19:25:56.113Z,86.26
2023-01-17T19:31:05.629Z,86.23
2023-01-17T19:36:11.750Z,86.01
2023-01-17T19:41:16.922Z,85.61
2023-01-17T19:46:24.181Z,85.79
2023-01-17T19:51:28.473Z,85.19
2023-01-17T19:56:32.327Z,85.48
2023-01-17T20:01:37.903Z,85.56
2023-01-17T20:06:41.594Z,85.77
2023-01-17T20:11:45.631Z,85.57
2023-01-17T20:16:51.574Z,85.56
2023-01-17T20:21:55.080Z,85.32
2023-01-17T20:26:59.903Z,84.77
2023-01-17T20:32:05.039Z,84.55
2023-01-17T20:37:08.887Z,84.70
2023-01-17T20:42:12.582Z,85.02
2023-01-17T20:47:18.227Z,85.50
2023-01-17T20:52:21.648Z,86.12
2023-01-17T20:57:25.370Z,85.74
2023-01-17T21:08:21.685Z,85.34
2023-01-17T21:13:25.729Z,86.00
2023-01-17T21:18:31.880Z,85.61
2023-01-17T21:23:36.958Z,86.49
2023-01-17T21:28:41.857Z,87.15
2023-01-17T21:33:45.543Z,87.17
2023-01-17T21:38:52.275Z,86.76
2023-01-17T21:43:57.541Z,86.56
2023-01-17T21:49:01.912Z,86.86
2023-01-17T21:54:07.322Z,87.35
2023-01-17T21:59:10.673Z,87.33
2023-01-17T22:04:14.035Z,87.08
2023-01-17T22:16:37.224Z,89.61
2023-01-17T22:21:40.853Z,88.39
2023-01-17T22:26:44.351Z,87.07
2023-01-17T22:31:49.135Z,87.04
2023-01-17T22:36:52.510Z,86.58
2023-01-17T22:41:55.833Z,86.06
2023-01-17T22:47:00.955Z,85.95
2023-01-17T22:52:04.396Z,85.66
2023-01-17T22:57:08.582Z,85.58
2023-01-17T23:02:16.436Z,85.99
2023-01-17T23:07:20.227Z,87.06
2023-01-17T23:12:23.855Z,87.47
2023-01-17T23:17:46.109Z,87.98
2023-01-17T23:22:49.445Z,88.78
2023-01-17T23:28:10.168Z,88.81
2023-01-17T23:33:17.290Z,89.34
2023-01-17T23:38:29.357Z,89.33
2023-01-17T23:43:33.810Z,89.58
2023-01-17T23:48:38.582Z,89.63
2023-01-17T23:53:42.646Z,89.54
2023-01-17T23:58:46.188Z,89.03
